Terminal Aerodrome Forecast
Issued by NWS St Louis, MO

Home | Current Version | Previous Version | Graphics & Text | Print | Product List | Glossary On
Versions: 1 2 3 4 5 6 7 8 9 10 11 12 13 14 15 16 17 18 19 20 21 22 23 24 25 26 27 28 29 30
000
FTUS43 KLSX 251500 AAA
TAFSTL
TAF AMD
KSTL 251507Z 2515/2618 26008KT P6SM BKN011
     FM251600 VRB05KT P6SM SCT015 BKN150
     FM260000 06012KT 5SM -SHRA VCTS SCT015 BKN050CB
     FM260600 36015KT 3SM -RA BR SCT007 OVC015
     FM261500 33012KT P6SM OVC025=

USA.gov is the U.S. government's official web portal to all federal, state and local government web resources and services.